createdAt,value
2023-02-07T00:01:43.279Z,81.57
2023-02-07T00:04:13.372Z,82.29
2023-02-07T00:06:41.926Z,82.92
2023-02-07T00:09:12.071Z,82.77
2023-02-07T00:11:41.589Z,82.95
2023-02-07T00:14:12.830Z,83.14
2023-02-07T00:16:41.984Z,83.19
2023-02-07T00:19:10.527Z,82.80
2023-02-07T00:21:40.461Z,82.45
2023-02-07T00:24:09.358Z,82.30
2023-02-07T00:26:37.898Z,82.28
2023-02-07T00:29:07.141Z,82.01
2023-02-07T00:31:36.731Z,81.84
2023-02-07T00:34:08.365Z,81.71
2023-02-07T00:36:40.469Z,81.26
2023-02-07T00:39:13.521Z,80.84
2023-02-07T00:41:42.277Z,80.54
2023-02-07T00:44:11.685Z,80.59
2023-02-07T00:46:40.492Z,80.41
2023-02-07T00:49:09.139Z,80.13
2023-02-07T00:51:39.092Z,80.06
2023-02-07T00:54:07.901Z,79.73
2023-02-07T00:56:37.166Z,79.39
2023-02-07T00:59:05.694Z,79.32
2023-02-07T01:01:34.297Z,79.19
2023-02-07T01:04:03.058Z,79.10
2023-02-07T01:06:33.899Z,79.28
2023-02-07T01:09:07.097Z,79.56
2023-02-07T01:11:35.624Z,79.71
2023-02-07T01:14:04.655Z,80.08
2023-02-07T01:16:36.320Z,80.10
2023-02-07T01:19:07.471Z,79.94
2023-02-07T01:21:36.253Z,80.33
2023-02-07T01:24:09.262Z,80.39
2023-02-07T01:26:38.743Z,80.69
2023-02-07T01:29:07.463Z,80.37
2023-02-07T01:31:37.085Z,80.04
2023-02-07T01:34:05.945Z,80.20
2023-02-07T01:36:34.606Z,80.15
2023-02-07T01:39:03.941Z,80.51
2023-02-07T01:41:37.490Z,80.53
2023-02-07T01:44:09.549Z,80.29
2023-02-07T01:46:38.160Z,80.46
2023-02-07T01:49:10.109Z,80.28
2023-02-07T01:51:43.963Z,80.31
2023-02-07T01:54:14.295Z,80.39
2023-02-07T01:56:58.008Z,80.51
2023-02-07T01:59:27.855Z,80.39
2023-02-07T02:01:57.858Z,80.80
2023-02-07T02:04:27.087Z,81.13
2023-02-07T02:06:56.121Z,81.13
2023-02-07T02:09:25.453Z,80.94
2023-02-07T02:12:30.502Z,80.99
2023-02-07T02:15:14.340Z,81.06
2023-02-07T02:18:01.327Z,81.42
2023-02-07T02:21:33.954Z,81.24
2023-02-07T02:25:03.445Z,81.08
2023-02-07T02:27:59.846Z,81.15
2023-02-07T02:30:58.213Z,80.94
2023-02-07T02:33:46.896Z,81.30
2023-02-07T02:36:28.697Z,81.57
2023-02-07T02:39:08.925Z,82.28
2023-02-07T02:41:43.858Z,81.97
2023-02-07T02:44:18.498Z,82.18
2023-02-07T02:46:49.195Z,82.62
2023-02-07T02:49:20.955Z,82.96
2023-02-07T02:51:52.855Z,82.77
2023-02-07T02:54:33.157Z,83.09
2023-02-07T02:57:34.754Z,82.72
2023-02-07T03:00:25.852Z,82.75
2023-02-07T03:03:21.314Z,82.43
2023-02-07T03:06:08.223Z,82.70
2023-02-07T03:08:45.673Z,82.77
2023-02-07T03:11:17.532Z,82.20
2023-02-07T03:14:01.157Z,81.39
2023-02-07T03:16:36.380Z,81.69
2023-02-07T03:19:11.312Z,81.75
2023-02-07T03:21:47.313Z,81.97
2023-02-07T03:24:20.040Z,82.34
2023-02-07T03:26:51.875Z,82.53
2023-02-07T03:29:22.630Z,83.16
2023-02-07T03:31:58.004Z,83.39
2023-02-07T03:34:34.639Z,84.07
2023-02-07T03:37:11.410Z,84.55
2023-02-07T03:39:40.452Z,84.88
2023-02-07T03:42:15.892Z,84.68
2023-02-07T03:44:46.314Z,85.09
2023-02-07T03:47:18.162Z,84.80
2023-02-07T03:49:46.723Z,84.56
2023-02-07T03:52:16.564Z,84.49
2023-02-07T03:54:46.243Z,84.45
2023-02-07T03:57:14.760Z,84.10
2023-02-07T03:59:43.356Z,83.98
2023-02-07T04:02:11.814Z,83.96
2023-02-07T04:04:40.416Z,83.70
2023-02-07T04:07:08.961Z,83.39
2023-02-07T04:09:38.710Z,83.30
2023-02-07T04:12:07.496Z,83.27
2023-02-07T04:14:35.935Z,83.23
2023-02-07T04:17:04.750Z,83.07
2023-02-07T04:19:33.172Z,83.41
2023-02-07T04:22:01.738Z,83.20
2023-02-07T04:24:32.101Z,83.36
2023-02-07T04:27:01.932Z,83.32
2023-02-07T04:29:30.406Z,83.14
2023-02-07T04:31:59.154Z,82.97
2023-02-07T04:34:28.014Z,82.79
2023-02-07T04:36:56.643Z,82.50
2023-02-07T04:39:25.117Z,82.56
2023-02-07T04:41:53.954Z,81.51
2023-02-07T04:44:24.158Z,81.57
2023-02-07T04:46:52.568Z,81.57
2023-02-07T04:49:21.426Z,81.64
2023-02-07T04:51:49.941Z,81.31
2023-02-07T04:54:18.376Z,81.26
2023-02-07T04:56:46.720Z,80.76
2023-02-07T04:59:15.194Z,81.03
2023-02-07T05:01:45.013Z,81.02
2023-02-07T05:04:13.437Z,81.46
2023-02-07T05:06:41.959Z,81.72
2023-02-07T05:09:10.428Z,81.71
2023-02-07T05:11:38.883Z,82.28
2023-02-07T05:14:07.309Z,82.25
2023-02-07T05:16:35.975Z,82.45
2023-02-07T05:19:06.118Z,82.33
2023-02-07T05:21:34.496Z,82.33
2023-02-07T05:24:03.028Z,82.61
2023-02-07T05:26:31.429Z,83.25
2023-02-07T05:28:59.932Z,83.46
2023-02-07T05:31:42.366Z,84.11
2023-02-07T05:34:12.206Z,84.08
2023-02-07T05:36:40.881Z,83.99
2023-02-07T05:39:09.292Z,83.80
2023-02-07T05:41:37.824Z,83.41
2023-02-07T05:44:07.118Z,83.88
2023-02-07T05:46:35.550Z,83.79
2023-02-07T05:49:04.524Z,84.20
2023-02-07T05:51:34.592Z,85.11
2023-02-07T05:54:03.147Z,85.41
2023-02-07T05:56:31.560Z,85.66
2023-02-07T05:59:00.140Z,85.39
2023-02-07T06:01:28.817Z,85.13
2023-02-07T06:03:57.290Z,85.38
2023-02-07T06:06:25.783Z,85.14
2023-02-07T06:08:55.592Z,85.12
2023-02-07T06:11:24.089Z,85.39
2023-02-07T06:13:52.630Z,85.60
2023-02-07T06:16:21.038Z,85.66
2023-02-07T06:18:49.515Z,85.37
2023-02-07T06:21:18.056Z,86.21
2023-02-07T06:23:49.257Z,86.47
2023-02-07T06:26:19.488Z,86.61
2023-02-07T06:28:48.281Z,86.56
2023-02-07T06:31:16.925Z,86.85
2023-02-07T06:33:45.601Z,86.85
2023-02-07T06:36:14.072Z,86.92
2023-02-07T06:38:42.560Z,86.83
2023-02-07T06:41:11.327Z,87.27
2023-02-07T06:43:41.700Z,87.06
2023-02-07T06:46:10.144Z,86.64
2023-02-07T06:48:38.733Z,87.40
2023-02-07T06:51:07.711Z,87.55
2023-02-07T06:53:36.512Z,87.50
2023-02-07T06:56:05.462Z,87.91
2023-02-07T06:58:34.253Z,88.30
2023-02-07T07:01:05.727Z,88.10
2023-02-07T07:03:34.615Z,88.32
2023-02-07T07:06:03.037Z,87.74
2023-02-07T07:08:31.609Z,87.62
2023-02-07T07:11:00.092Z,87.86
2023-02-07T07:13:28.612Z,87.56
2023-02-07T07:15:57.115Z,86.91
2023-02-07T07:18:27.013Z,87.60
2023-02-07T07:20:55.557Z,87.63
2023-02-07T07:23:24.529Z,88.08
2023-02-07T07:25:53.034Z,87.07
2023-02-07T07:28:21.810Z,87.55
2023-02-07T07:30:50.319Z,87.97
2023-02-07T07:33:18.832Z,87.31
2023-02-07T07:35:48.604Z,87.16
2023-02-07T07:38:17.094Z,86.68
2023-02-07T07:40:45.559Z,86.15
2023-02-07T07:43:13.963Z,86.39
2023-02-07T07:45:51.212Z,85.91
2023-02-07T07:48:19.855Z,86.31
2023-02-07T07:50:50.297Z,85.86
2023-02-07T07:53:20.008Z,85.84
2023-02-07T07:55:51.539Z,85.37
2023-02-07T07:58:21.100Z,84.74
2023-02-07T08:00:49.723Z,84.13
2023-02-07T08:03:20.535Z,84.13
2023-02-07T08:05:51.094Z,83.45
2023-02-07T08:08:20.558Z,83.38
2023-02-07T08:10:49.503Z,83.15
2023-02-07T08:13:20.174Z,81.56
2023-02-07T08:15:49.269Z,91.79
2023-02-07T08:18:18.731Z,87.88
2023-02-07T08:20:47.241Z,86.43
2023-02-07T08:23:17.091Z,80.49
2023-02-07T08:25:46.710Z,80.06
2023-02-07T08:28:15.546Z,77.61
2023-02-07T08:30:45.788Z,77.56
2023-02-07T08:33:14.458Z,77.32
2023-02-07T08:35:43.363Z,74.85
2023-02-07T08:38:11.914Z,75.49
2023-02-07T08:40:41.770Z,75.21
2023-02-07T08:43:12.483Z,74.82
2023-02-07T08:45:41.342Z,72.12
2023-02-07T08:48:10.537Z,73.27
2023-02-07T08:50:39.304Z,74.82
2023-02-07T08:53:08.343Z,75.21
2023-02-07T08:55:36.787Z,74.15
2023-02-07T08:58:06.506Z,75.16
2023-02-07T09:00:35.481Z,73.11
2023-02-07T09:03:04.621Z,73.44
2023-02-07T09:05:33.890Z,73.23
2023-02-07T09:08:02.701Z,77.11
2023-02-07T09:10:31.228Z,74.33
2023-02-07T09:12:59.776Z,73.79
2023-02-07T09:15:29.534Z,71.44
2023-02-07T09:17:58.177Z,70.85
2023-02-07T09:20:26.627Z,72.29
2023-02-07T09:23:13.540Z,72.92
2023-02-07T09:25:42.839Z,71.76
2023-02-07T09:28:11.570Z,71.93
2023-02-07T09:30:44.480Z,70.47
2023-02-07T09:33:15.206Z,69.24
2023-02-07T09:35:46.476Z,69.42
2023-02-07T09:38:18.006Z,68.87
2023-02-07T09:40:49.028Z,69.43
2023-02-07T09:43:36.406Z,67.60
2023-02-07T09:46:14.936Z,66.23
2023-02-07T09:48:49.672Z,64.20
2023-02-07T09:51:23.646Z,61.44
2023-02-07T09:53:57.279Z,59.43
2023-02-07T09:56:29.240Z,58.69
2023-02-07T09:59:06.287Z,55.16
2023-02-07T10:01:42.792Z,54.51
2023-02-07T10:04:30.321Z,52.59
2023-02-07T10:07:00.954Z,51.86
2023-02-07T10:09:33.115Z,50.74
2023-02-07T10:12:11.697Z,52.24
2023-02-07T10:15:01.634Z,52.31
2023-02-07T10:17:54.560Z,52.53
2023-02-07T10:20:36.837Z,51.70
2023-02-07T10:23:28.100Z,50.94
2023-02-07T10:26:11.467Z,50.02
2023-02-07T10:29:04.118Z,48.65
2023-02-07T10:31:35.287Z,49.13
2023-02-07T10:34:15.324Z,48.35
2023-02-07T10:36:49.405Z,49.09
2023-02-07T10:39:33.642Z,49.04
2023-02-07T10:42:02.336Z,48.26
2023-02-07T10:44:31.162Z,46.99
2023-02-07T10:47:02.685Z,46.82
2023-02-07T10:49:35.502Z,47.11
2023-02-07T10:52:27.522Z,46.92
2023-02-07T10:54:58.905Z,46.78
2023-02-07T10:57:29.576Z,46.42
2023-02-07T11:00:06.888Z,45.77
2023-02-07T11:02:50.082Z,46.35
2023-02-07T11:05:37.472Z,46.88
2023-02-07T11:08:16.739Z,46.63
2023-02-07T11:10:47.414Z,46.49
2023-02-07T11:13:19.760Z,45.27
2023-02-07T11:15:56.846Z,45.34
2023-02-07T11:18:38.760Z,45.29
2023-02-07T11:21:24.059Z,46.32
2023-02-07T11:23:55.180Z,45.83
2023-02-07T11:26:25.093Z,46.57
2023-02-07T11:28:55.823Z,45.37
2023-02-07T11:31:31.266Z,45.50
2023-02-07T11:34:11.188Z,45.59
2023-02-07T11:36:41.060Z,44.22
2023-02-07T11:39:18.140Z,43.77
2023-02-07T11:41:56.994Z,45.06
2023-02-07T11:44:29.625Z,46.57
2023-02-07T11:47:04.817Z,46.11
2023-02-07T11:49:44.071Z,46.12
2023-02-07T11:52:15.180Z,44.93
2023-02-07T11:54:50.191Z,44.58
2023-02-07T11:57:21.231Z,44.92
2023-02-07T12:00:01.487Z,44.74
2023-02-07T12:02:32.353Z,45.77
2023-02-07T12:05:20.443Z,45.04
2023-02-07T12:07:54.270Z,45.97
2023-02-07T12:10:25.314Z,45.26
2023-02-07T12:13:00.204Z,44.87
2023-02-07T12:15:34.856Z,45.98
2023-02-07T12:18:09.090Z,46.28
2023-02-07T12:20:42.797Z,45.89
2023-02-07T12:23:41.877Z,45.38
2023-02-07T12:26:21.364Z,45.84
2023-02-07T12:29:13.188Z,45.68
2023-02-07T12:31:52.372Z,45.32
2023-02-07T12:34:30.908Z,44.48
2023-02-07T12:37:06.576Z,44.25
2023-02-07T12:39:44.850Z,47.56
2023-02-07T12:42:33.216Z,51.36
2023-02-07T12:45:04.309Z,45.96
2023-02-07T12:47:49.004Z,44.90
2023-02-07T12:50:33.376Z,44.57
2023-02-07T12:53:23.850Z,45.95
2023-02-07T12:56:07.280Z,45.58
2023-02-07T12:58:52.939Z,47.15
2023-02-07T13:01:32.359Z,44.21
2023-02-07T13:04:52.145Z,43.94
2023-02-07T13:07:43.611Z,47.61
2023-02-07T13:10:24.302Z,45.34
2023-02-07T13:13:01.796Z,42.28
2023-02-07T13:15:39.465Z,41.84
2023-02-07T13:18:17.686Z,42.59
2023-02-07T13:21:04.949Z,42.82
2023-02-07T13:23:38.640Z,43.49
2023-02-07T13:26:11.662Z,43.76
2023-02-07T13:28:46.728Z,44.22
2023-02-07T13:31:20.762Z,43.85
2023-02-07T13:33:51.436Z,43.15
2023-02-07T13:36:31.183Z,43.48
2023-02-07T13:39:22.904Z,44.30
2023-02-07T13:42:04.247Z,44.31
2023-02-07T13:44:44.291Z,44.41
2023-02-07T13:47:40.849Z,43.70
2023-02-07T13:50:26.793Z,43.65
2023-02-07T13:53:05.476Z,43.61
2023-02-07T13:55:38.058Z,43.88
2023-02-07T13:59:08.664Z,43.85
2023-02-07T14:01:40.418Z,43.68
2023-02-07T14:04:11.894Z,44.22
2023-02-07T14:06:42.341Z,44.38
2023-02-07T14:09:20.178Z,44.78
2023-02-07T14:11:51.890Z,44.47
2023-02-07T14:14:28.851Z,43.70
2023-02-07T14:17:01.144Z,45.27
2023-02-07T14:20:02.405Z,45.31
2023-02-07T14:22:33.272Z,45.06
2023-02-07T14:25:24.055Z,45.57
2023-02-07T14:28:20.746Z,45.27
2023-02-07T14:31:14.669Z,45.63
2023-02-07T14:34:14.133Z,45.39
2023-02-07T14:36:43.774Z,45.33
2023-02-07T14:39:33.530Z,45.06
2023-02-07T14:42:17.160Z,45.18
2023-02-07T14:44:48.120Z,44.64
2023-02-07T14:47:25.476Z,45.16
2023-02-07T14:49:58.357Z,44.92
2023-02-07T14:52:31.692Z,45.17
2023-02-07T14:55:05.041Z,45.21
2023-02-07T14:57:41.401Z,45.58
2023-02-07T15:00:28.568Z,45.58
2023-02-07T15:02:58.855Z,45.74
2023-02-07T15:05:32.853Z,45.87
2023-02-07T15:08:17.771Z,45.75
2023-02-07T15:10:55.278Z,46.25
2023-02-07T15:13:31.857Z,47.56
2023-02-07T15:16:05.093Z,48.63
2023-02-07T15:18:39.135Z,49.37
2023-02-07T15:21:17.125Z,49.42
2023-02-07T15:23:50.622Z,48.89
2023-02-07T15:26:20.833Z,48.77
2023-02-07T15:28:58.464Z,48.91
2023-02-07T15:31:27.118Z,48.27
2023-02-07T15:33:58.669Z,48.30
2023-02-07T15:36:38.508Z,48.25
2023-02-07T15:39:16.186Z,49.40
2023-02-07T15:41:46.828Z,50.24
2023-02-07T15:44:24.106Z,50.97
2023-02-07T15:46:54.388Z,51.60
2023-02-07T15:49:29.691Z,51.63
2023-02-07T15:52:06.780Z,50.90
2023-02-07T15:54:40.457Z,50.67
2023-02-07T15:57:15.349Z,51.22
2023-02-07T15:59:44.424Z,51.45
2023-02-07T16:02:26.064Z,51.08
2023-02-07T16:04:54.603Z,51.66
2023-02-07T16:07:25.521Z,51.23
2023-02-07T16:09:54.481Z,51.50
2023-02-07T16:12:43.838Z,51.99
2023-02-07T16:15:32.213Z,52.34
2023-02-07T16:18:02.156Z,52.45
2023-02-07T16:20:35.694Z,52.20
2023-02-07T16:23:09.742Z,52.58
2023-02-07T16:25:38.892Z,53.15
2023-02-07T16:28:14.074Z,52.96
2023-02-07T16:30:42.840Z,52.89
2023-02-07T16:33:14.983Z,52.64
2023-02-07T16:35:43.565Z,53.21
2023-02-07T16:38:13.405Z,52.74
2023-02-07T16:40:42.023Z,52.94
2023-02-07T16:43:10.484Z,52.62
2023-02-07T16:45:40.232Z,52.49
2023-02-07T16:48:16.029Z,52.83
2023-02-07T16:50:44.751Z,52.68
2023-02-07T16:53:14.562Z,52.54
2023-02-07T16:55:43.085Z,52.77
2023-02-07T16:58:22.630Z,52.26
2023-02-07T17:00:51.189Z,52.89
2023-02-07T17:03:20.109Z,52.41
2023-02-07T17:05:48.934Z,51.85
2023-02-07T17:08:27.078Z,51.61
2023-02-07T17:11:10.984Z,51.63
2023-02-07T17:14:10.974Z,51.85
2023-02-07T17:17:01.581Z,51.14
2023-02-07T17:20:08.569Z,51.24
2023-02-07T17:23:30.707Z,51.64
2023-02-07T17:26:17.485Z,51.49
2023-02-07T17:28:45.854Z,51.56
2023-02-07T17:31:14.679Z,51.86
2023-02-07T17:33:43.636Z,52.25
2023-02-07T17:36:13.991Z,51.72
2023-02-07T17:38:43.238Z,51.65
2023-02-07T17:41:14.639Z,51.74
2023-02-07T17:47:11.996Z,52.21
2023-02-07T17:49:40.579Z,51.90
2023-02-07T17:52:13.452Z,51.92
2023-02-07T17:54:42.923Z,51.98
2023-02-07T17:57:18.622Z,51.57
2023-02-07T17:59:47.261Z,51.38
2023-02-07T18:02:15.892Z,51.63
2023-02-07T18:05:26.652Z,52.16
2023-02-07T18:07:55.614Z,52.63
2023-02-07T18:10:26.909Z,52.93
2023-02-07T18:12:57.378Z,53.02
2023-02-07T18:15:41.648Z,53.82
2023-02-07T18:18:17.400Z,53.98
2023-02-07T18:20:48.728Z,54.14
2023-02-07T18:23:23.518Z,54.87
2023-02-07T18:25:53.390Z,54.56
2023-02-07T18:28:23.479Z,54.25
2023-02-07T18:30:52.236Z,54.17
2023-02-07T18:33:20.993Z,54.51
2023-02-07T18:35:52.629Z,54.19
2023-02-07T18:38:22.240Z,53.65
2023-02-07T18:40:50.644Z,54.28
2023-02-07T18:43:19.219Z,55.24
2023-02-07T18:45:49.340Z,55.46
2023-02-07T18:48:17.962Z,55.47
2023-02-07T18:50:46.601Z,55.99
2023-02-07T18:53:22.767Z,55.78
2023-02-07T18:55:52.494Z,55.63
2023-02-07T18:58:21.067Z,55.69
2023-02-07T19:07:13.353Z,56.81
2023-02-07T19:09:41.889Z,56.76
2023-02-07T19:12:19.637Z,57.37
2023-02-07T19:14:48.409Z,57.53
2023-02-07T19:17:20.094Z,57.64
2023-02-07T19:33:50.180Z,59.66
2023-02-07T19:40:02.284Z,60.45
2023-02-07T19:42:39.991Z,60.95
2023-02-07T19:45:09.420Z,61.11
2023-02-07T19:47:37.940Z,61.44
2023-02-07T19:50:08.809Z,61.79
2023-02-07T19:52:37.511Z,62.26
2023-02-07T19:56:21.502Z,62.16
2023-02-07T19:59:14.542Z,62.42
2023-02-07T20:01:47.087Z,62.62
2023-02-07T20:04:20.198Z,62.62
2023-02-07T20:06:50.351Z,63.10
2023-02-07T20:09:19.803Z,63.08
2023-02-07T20:12:09.779Z,63.47
2023-02-07T20:15:20.924Z,64.05
2023-02-07T20:17:49.503Z,64.09
2023-02-07T20:20:18.412Z,63.75
2023-02-07T20:22:48.466Z,63.47
2023-02-07T20:25:17.326Z,63.53
2023-02-07T20:27:45.997Z,62.83
2023-02-07T20:30:56.634Z,62.63
2023-02-07T20:54:36.675Z,60.59
2023-02-07T20:57:17.726Z,60.62
2023-02-07T20:59:59.169Z,60.88
2023-02-07T21:02:46.208Z,61.33
2023-02-07T21:05:21.609Z,60.80
2023-02-07T21:08:05.951Z,59.54
2023-02-07T21:10:34.905Z,59.73
2023-02-07T21:13:06.425Z,59.70
2023-02-07T21:16:03.525Z,59.75
2023-02-07T21:21:39.716Z,59.55
2023-02-07T21:24:10.552Z,59.71
2023-02-07T21:26:39.144Z,59.65
2023-02-07T21:29:36.377Z,60.26
2023-02-07T21:32:08.701Z,60.66
2023-02-07T21:47:59.294Z,62.80
2023-02-07T21:50:27.713Z,63.09
2023-02-07T21:52:56.286Z,63.46
2023-02-07T21:55:25.176Z,63.62
2023-02-07T21:57:53.974Z,63.34
2023-02-07T22:00:22.884Z,63.34
2023-02-07T22:02:53.149Z,63.28
2023-02-07T22:05:21.704Z,63.03
2023-02-07T22:07:50.183Z,62.90
2023-02-07T22:10:19.066Z,61.34
2023-02-07T22:12:48.131Z,60.72
2023-02-07T22:15:17.132Z,60.80
2023-02-07T22:17:45.673Z,60.30
2023-02-07T22:20:15.855Z,60.61
2023-02-07T22:22:44.558Z,60.07
2023-02-07T22:25:13.618Z,59.97
2023-02-07T22:27:42.618Z,60.57
2023-02-07T22:30:13.350Z,61.00
2023-02-07T22:32:42.791Z,61.73
2023-02-07T22:35:11.466Z,62.43
2023-02-07T22:37:41.780Z,62.57
2023-02-07T22:40:11.926Z,62.11
2023-02-07T22:42:47.972Z,62.66
2023-02-07T22:45:16.633Z,63.18
2023-02-07T22:47:45.292Z,63.54
2023-02-07T22:54:26.142Z,63.89
2023-02-07T22:57:29.354Z,64.54
2023-02-07T23:00:00.908Z,64.19
2023-02-07T23:02:29.933Z,64.90
2023-02-07T23:04:58.651Z,64.69
2023-02-07T23:07:51.582Z,64.62
2023-02-07T23:10:29.632Z,64.51
2023-02-07T23:13:03.173Z,65.51
2023-02-07T23:24:13.302Z,66.19
2023-02-07T23:26:43.272Z,66.12
2023-02-07T23:29:12.108Z,65.66
2023-02-07T23:31:40.597Z,65.61
2023-02-07T23:34:10.439Z,65.10
2023-02-07T23:36:39.771Z,64.86
2023-02-07T23:39:08.535Z,65.10
2023-02-07T23:41:37.182Z,65.47
2023-02-07T23:44:07.393Z,66.04
2023-02-07T23:46:36.085Z,66.58
2023-02-07T23:49:05.235Z,66.69
2023-02-07T23:51:34.308Z,66.86
2023-02-07T23:54:02.849Z,66.96
2023-02-07T23:56:31.939Z,67.08
2023-02-07T23:59:00.851Z,67.35
